sensor_id;sensor_type;location;lat;lon;timestamp;P1;durP1;ratioP1;P2;durP2;ratioP2
18576;SDS011;9418;52.694;13.294;2023-07-13T00:01:12;2.53;;;2.30;;
18576;SDS011;9418;52.694;13.294;2023-07-13T00:03:38;7.70;;;2.83;;
18576;SDS011;9418;52.694;13.294;2023-07-13T00:06:06;3.73;;;2.27;;
18576;SDS011;9418;52.694;13.294;2023-07-13T00:08:33;3.57;;;2.37;;
18576;SDS011;9418;52.694;13.294;2023-07-13T00:11:01;7.13;;;2.20;;
18576;SDS011;9418;52.694;13.294;2023-07-13T00:13:28;2.00;;;1.77;;
18576;SDS011;9418;52.694;13.294;2023-07-13T00:15:56;4.33;;;1.97;;
18576;SDS011;9418;52.694;13.294;2023-07-13T00:18:24;2.53;;;2.20;;
18576;SDS011;9418;52.694;13.294;2023-07-13T00:20:51;6.27;;;2.40;;
18576;SDS011;9418;52.694;13.294;2023-07-13T00:23:17;2.23;;;2.00;;
18576;SDS011;9418;52.694;13.294;2023-07-13T00:25:44;2.67;;;2.17;;
18576;SDS011;9418;52.694;13.294;2023-07-13T00:28:10;10.53;;;2.50;;
18576;SDS011;9418;52.694;13.294;2023-07-13T00:30:37;6.57;;;2.50;;
18576;SDS011;9418;52.694;13.294;2023-07-13T00:33:05;2.07;;;1.97;;
18576;SDS011;9418;52.694;13.294;2023-07-13T00:35:32;5.63;;;2.30;;
18576;SDS011;9418;52.694;13.294;2023-07-13T00:38:00;7.60;;;2.63;;
18576;SDS011;9418;52.694;13.294;2023-07-13T00:40:26;2.80;;;2.30;;
18576;SDS011;9418;52.694;13.294;2023-07-13T00:42:53;2.83;;;2.00;;
18576;SDS011;9418;52.694;13.294;2023-07-13T00:48:29;4.93;;;2.43;;
18576;SDS011;9418;52.694;13.294;2023-07-13T00:50:59;2.90;;;2.23;;
18576;SDS011;9418;52.694;13.294;2023-07-13T00:53:27;2.83;;;2.20;;
18576;SDS011;9418;52.694;13.294;2023-07-13T00:55:57;5.10;;;2.03;;
18576;SDS011;9418;52.694;13.294;2023-07-13T00:58:24;3.90;;;2.60;;
18576;SDS011;9418;52.694;13.294;2023-07-13T01:00:52;2.53;;;2.30;;
18576;SDS011;9418;52.694;13.294;2023-07-13T01:03:19;2.47;;;1.97;;
18576;SDS011;9418;52.694;13.294;2023-07-13T01:05:48;6.50;;;2.77;;
18576;SDS011;9418;52.694;13.294;2023-07-13T01:08:16;3.30;;;2.50;;
18576;SDS011;9418;52.694;13.294;2023-07-13T01:10:50;4.10;;;2.70;;
18576;SDS011;9418;52.694;13.294;2023-07-13T01:13:17;5.40;;;2.67;;
18576;SDS011;9418;52.694;13.294;2023-07-13T01:15:45;5.53;;;2.10;;
18576;SDS011;9418;52.694;13.294;2023-07-13T01:18:15;3.33;;;2.30;;
18576;SDS011;9418;52.694;13.294;2023-07-13T01:20:50;3.83;;;2.67;;
18576;SDS011;9418;52.694;13.294;2023-07-13T01:23:17;5.43;;;2.10;;
18576;SDS011;9418;52.694;13.294;2023-07-13T01:25:44;2.20;;;1.97;;
18576;SDS011;9418;52.694;13.294;2023-07-13T01:28:11;2.60;;;1.90;;
18576;SDS011;9418;52.694;13.294;2023-07-13T01:30:38;6.80;;;2.37;;
18576;SDS011;9418;52.694;13.294;2023-07-13T01:33:05;4.97;;;2.63;;
18576;SDS011;9418;52.694;13.294;2023-07-13T01:35:32;5.90;;;2.50;;
18576;SDS011;9418;52.694;13.294;2023-07-13T01:38:00;12.60;;;2.70;;
18576;SDS011;9418;52.694;13.294;2023-07-13T01:40:28;4.70;;;2.50;;
18576;SDS011;9418;52.694;13.294;2023-07-13T01:42:55;4.47;;;2.50;;
18576;SDS011;9418;52.694;13.294;2023-07-13T01:45:21;2.50;;;2.30;;
18576;SDS011;9418;52.694;13.294;2023-07-13T01:47:48;6.53;;;2.83;;
18576;SDS011;9418;52.694;13.294;2023-07-13T01:50:15;2.47;;;2.27;;
18576;SDS011;9418;52.694;13.294;2023-07-13T01:52:41;2.40;;;2.20;;
18576;SDS011;9418;52.694;13.294;2023-07-13T01:55:09;6.67;;;2.77;;
18576;SDS011;9418;52.694;13.294;2023-07-13T01:57:36;5.33;;;2.40;;
18576;SDS011;9418;52.694;13.294;2023-07-13T02:00:04;3.53;;;3.13;;
18576;SDS011;9418;52.694;13.294;2023-07-13T02:02:32;3.67;;;2.67;;
18576;SDS011;9418;52.694;13.294;2023-07-13T02:04:59;9.73;;;2.47;;
18576;SDS011;9418;52.694;13.294;2023-07-13T02:07:25;3.73;;;2.60;;
18576;SDS011;9418;52.694;13.294;2023-07-13T02:09:52;4.23;;;2.37;;
18576;SDS011;9418;52.694;13.294;2023-07-13T02:12:20;3.63;;;2.60;;
18576;SDS011;9418;52.694;13.294;2023-07-13T02:14:46;2.40;;;2.20;;
18576;SDS011;9418;52.694;13.294;2023-07-13T02:17:13;3.53;;;2.77;;
18576;SDS011;9418;52.694;13.294;2023-07-13T02:19:40;6.97;;;2.80;;
18576;SDS011;9418;52.694;13.294;2023-07-13T02:22:06;3.47;;;2.93;;
18576;SDS011;9418;52.694;13.294;2023-07-13T02:27:01;3.23;;;2.50;;
18576;SDS011;9418;52.694;13.294;2023-07-13T02:29:28;2.90;;;2.30;;
18576;SDS011;9418;52.694;13.294;2023-07-13T02:31:55;2.80;;;2.50;;
18576;SDS011;9418;52.694;13.294;2023-07-13T02:34:22;4.10;;;2.87;;
18576;SDS011;9418;52.694;13.294;2023-07-13T02:36:48;10.00;;;3.87;;
18576;SDS011;9418;52.694;13.294;2023-07-13T02:39:15;6.67;;;2.63;;
18576;SDS011;9418;52.694;13.294;2023-07-13T02:41:41;3.93;;;2.30;;
18576;SDS011;9418;52.694;13.294;2023-07-13T02:44:08;3.07;;;2.60;;
18576;SDS011;9418;52.694;13.294;2023-07-13T02:46:36;5.90;;;2.63;;
18576;SDS011;9418;52.694;13.294;2023-07-13T02:49:03;6.53;;;2.63;;
18576;SDS011;9418;52.694;13.294;2023-07-13T02:51:30;6.10;;;3.20;;
18576;SDS011;9418;52.694;13.294;2023-07-13T02:53:58;4.03;;;3.37;;
18576;SDS011;9418;52.694;13.294;2023-07-13T02:56:26;3.73;;;3.10;;
18576;SDS011;9418;52.694;13.294;2023-07-13T02:58:56;3.10;;;2.80;;
18576;SDS011;9418;52.694;13.294;2023-07-13T03:01:23;4.73;;;2.87;;
18576;SDS011;9418;52.694;13.294;2023-07-13T03:03:51;7.50;;;2.77;;
18576;SDS011;9418;52.694;13.294;2023-07-13T03:06:18;8.10;;;3.30;;
18576;SDS011;9418;52.694;13.294;2023-07-13T03:08:46;2.50;;;2.10;;
18576;SDS011;9418;52.694;13.294;2023-07-13T03:11:14;2.80;;;2.60;;
18576;SDS011;9418;52.694;13.294;2023-07-13T03:13:42;2.77;;;2.47;;
18576;SDS011;9418;52.694;13.294;2023-07-13T03:16:09;5.47;;;2.60;;
18576;SDS011;9418;52.694;13.294;2023-07-13T03:18:36;6.93;;;2.80;;
18576;SDS011;9418;52.694;13.294;2023-07-13T03:21:05;5.70;;;2.80;;
18576;SDS011;9418;52.694;13.294;2023-07-13T03:23:32;3.33;;;2.90;;
18576;SDS011;9418;52.694;13.294;2023-07-13T03:26:02;3.70;;;3.10;;
18576;SDS011;9418;52.694;13.294;2023-07-13T03:28:30;2.73;;;2.43;;
18576;SDS011;9418;52.694;13.294;2023-07-13T03:31:01;4.77;;;3.17;;
18576;SDS011;9418;52.694;13.294;2023-07-13T03:33:28;3.57;;;3.00;;
18576;SDS011;9418;52.694;13.294;2023-07-13T03:35:55;5.20;;;3.10;;
18576;SDS011;9418;52.694;13.294;2023-07-13T03:38:23;3.23;;;2.20;;
18576;SDS011;9418;52.694;13.294;2023-07-13T03:40:51;3.03;;;2.67;;
18576;SDS011;9418;52.694;13.294;2023-07-13T03:43:17;5.23;;;2.60;;
18576;SDS011;9418;52.694;13.294;2023-07-13T03:45:45;5.63;;;2.40;;
18576;SDS011;9418;52.694;13.294;2023-07-13T03:48:12;3.90;;;3.10;;
18576;SDS011;9418;52.694;13.294;2023-07-13T03:50:38;4.23;;;2.50;;
18576;SDS011;9418;52.694;13.294;2023-07-13T03:53:05;6.03;;;2.87;;
18576;SDS011;9418;52.694;13.294;2023-07-13T03:55:33;6.70;;;3.23;;
18576;SDS011;9418;52.694;13.294;2023-07-13T03:58:00;4.10;;;2.80;;
18576;SDS011;9418;52.694;13.294;2023-07-13T04:00:47;2.60;;;2.40;;
18576;SDS011;9418;52.694;13.294;2023-07-13T04:03:15;7.60;;;2.63;;
18576;SDS011;9418;52.694;13.294;2023-07-13T04:05:42;6.63;;;2.40;;
18576;SDS011;9418;52.694;13.294;2023-07-13T04:08:08;3.80;;;2.60;;
18576;SDS011;9418;52.694;13.294;2023-07-13T04:10:36;3.07;;;2.73;;
18576;SDS011;9418;52.694;13.294;2023-07-13T04:13:03;2.77;;;2.43;;
18576;SDS011;9418;52.694;13.294;2023-07-13T04:15:30;4.57;;;2.43;;
18576;SDS011;9418;52.694;13.294;2023-07-13T04:17:58;1.93;;;1.80;;
18576;SDS011;9418;52.694;13.294;2023-07-13T04:20:25;3.90;;;3.47;;
18576;SDS011;9418;52.694;13.294;2023-07-13T04:22:52;4.53;;;2.90;;
18576;SDS011;9418;52.694;13.294;2023-07-13T04:25:19;5.47;;;3.10;;
18576;SDS011;9418;52.694;13.294;2023-07-13T04:27:48;3.67;;;3.30;;
18576;SDS011;9418;52.694;13.294;2023-07-13T04:30:15;2.33;;;2.07;;
18576;SDS011;9418;52.694;13.294;2023-07-13T04:32:42;7.20;;;3.10;;
18576;SDS011;9418;52.694;13.294;2023-07-13T04:35:08;3.73;;;2.57;;
18576;SDS011;9418;52.694;13.294;2023-07-13T04:37:35;7.40;;;2.90;;
18576;SDS011;9418;52.694;13.294;2023-07-13T04:40:02;6.10;;;2.83;;
18576;SDS011;9418;52.694;13.294;2023-07-13T04:42:29;4.67;;;3.00;;
18576;SDS011;9418;52.694;13.294;2023-07-13T04:44:57;4.13;;;2.50;;
18576;SDS011;9418;52.694;13.294;2023-07-13T04:47:24;5.60;;;2.90;;
18576;SDS011;9418;52.694;13.294;2023-07-13T04:49:50;3.53;;;3.10;;
18576;SDS011;9418;52.694;13.294;2023-07-13T04:52:20;3.10;;;2.33;;
18576;SDS011;9418;52.694;13.294;2023-07-13T04:54:47;7.10;;;2.63;;
18576;SDS011;9418;52.694;13.294;2023-07-13T04:57:13;6.80;;;2.47;;
18576;SDS011;9418;52.694;13.294;2023-07-13T04:59:41;2.80;;;2.20;;
18576;SDS011;9418;52.694;13.294;2023-07-13T05:02:09;5.17;;;2.70;;
18576;SDS011;9418;52.694;13.294;2023-07-13T05:04:36;4.90;;;3.10;;
18576;SDS011;9418;52.694;13.294;2023-07-13T05:07:02;7.03;;;2.50;;
18576;SDS011;9418;52.694;13.294;2023-07-13T05:09:30;6.10;;;3.40;;
18576;SDS011;9418;52.694;13.294;2023-07-13T05:11:56;2.97;;;2.73;;
18576;SDS011;9418;52.694;13.294;2023-07-13T05:14:23;5.47;;;2.83;;
18576;SDS011;9418;52.694;13.294;2023-07-13T05:16:49;4.50;;;3.00;;
18576;SDS011;9418;52.694;13.294;2023-07-13T05:19:17;7.93;;;3.90;;
18576;SDS011;9418;52.694;13.294;2023-07-13T05:21:44;4.37;;;2.57;;
18576;SDS011;9418;52.694;13.294;2023-07-13T05:24:10;4.07;;;3.00;;
18576;SDS011;9418;52.694;13.294;2023-07-13T05:26:37;4.00;;;2.53;;
18576;SDS011;9418;52.694;13.294;2023-07-13T05:29:04;6.40;;;2.53;;
18576;SDS011;9418;52.694;13.294;2023-07-13T05:31:31;7.37;;;2.60;;
18576;SDS011;9418;52.694;13.294;2023-07-13T05:33:58;2.40;;;2.20;;
18576;SDS011;9418;52.694;13.294;2023-07-13T05:36:26;5.13;;;2.60;;
18576;SDS011;9418;52.694;13.294;2023-07-13T05:38:53;4.20;;;3.10;;
18576;SDS011;9418;52.694;13.294;2023-07-13T05:41:20;5.80;;;3.07;;
18576;SDS011;9418;52.694;13.294;2023-07-13T05:43:47;5.97;;;2.50;;
18576;SDS011;9418;52.694;13.294;2023-07-13T05:46:14;5.43;;;2.27;;
18576;SDS011;9418;52.694;13.294;2023-07-13T05:48:41;4.03;;;2.60;;
18576;SDS011;9418;52.694;13.294;2023-07-13T05:51:08;4.30;;;3.10;;
18576;SDS011;9418;52.694;13.294;2023-07-13T05:53:37;3.50;;;2.13;;
18576;SDS011;9418;52.694;13.294;2023-07-13T05:56:04;4.77;;;2.87;;
18576;SDS011;9418;52.694;13.294;2023-07-13T05:58:31;8.30;;;2.60;;
18576;SDS011;9418;52.694;13.294;2023-07-13T06:00:58;4.27;;;2.20;;
18576;SDS011;9418;52.694;13.294;2023-07-13T06:03:26;3.53;;;2.30;;
18576;SDS011;9418;52.694;13.294;2023-07-13T06:05:53;11.10;;;2.53;;
18576;SDS011;9418;52.694;13.294;2023-07-13T06:08:19;3.10;;;2.40;;
18576;SDS011;9418;52.694;13.294;2023-07-13T06:10:47;3.73;;;2.00;;
18576;SDS011;9418;52.694;13.294;2023-07-13T06:13:14;4.50;;;1.93;;
18576;SDS011;9418;52.694;13.294;2023-07-13T06:15:40;6.07;;;2.30;;
18576;SDS011;9418;52.694;13.294;2023-07-13T06:18:07;4.20;;;2.20;;
18576;SDS011;9418;52.694;13.294;2023-07-13T06:20:33;7.13;;;2.30;;
18576;SDS011;9418;52.694;13.294;2023-07-13T06:23:01;4.43;;;2.07;;
18576;SDS011;9418;52.694;13.294;2023-07-13T06:25:27;5.67;;;2.50;;
18576;SDS011;9418;52.694;13.294;2023-07-13T06:27:55;3.70;;;2.57;;
18576;SDS011;9418;52.694;13.294;2023-07-13T06:30:22;6.27;;;1.93;;
18576;SDS011;9418;52.694;13.294;2023-07-13T06:32:49;4.43;;;1.67;;
18576;SDS011;9418;52.694;13.294;2023-07-13T06:35:15;2.00;;;1.80;;
18576;SDS011;9418;52.694;13.294;2023-07-13T06:37:42;4.27;;;2.00;;
18576;SDS011;9418;52.694;13.294;2023-07-13T06:40:09;5.20;;;1.90;;
18576;SDS011;9418;52.694;13.294;2023-07-13T06:42:36;1.70;;;1.53;;
18576;SDS011;9418;52.694;13.294;2023-07-13T06:45:05;4.50;;;1.83;;
18576;SDS011;9418;52.694;13.294;2023-07-13T06:47:32;3.03;;;1.70;;
18576;SDS011;9418;52.694;13.294;2023-07-13T06:49:59;3.37;;;2.20;;
18576;SDS011;9418;52.694;13.294;2023-07-13T06:52:25;21.13;;;2.53;;
18576;SDS011;9418;52.694;13.294;2023-07-13T06:54:52;4.70;;;1.60;;
18576;SDS011;9418;52.694;13.294;2023-07-13T06:57:18;3.37;;;2.20;;
18576;SDS011;9418;52.694;13.294;2023-07-13T06:59:45;5.83;;;1.97;;
18576;SDS011;9418;52.694;13.294;2023-07-13T07:02:13;4.93;;;2.30;;
18576;SDS011;9418;52.694;13.294;2023-07-13T07:04:39;7.10;;;2.10;;
18576;SDS011;9418;52.694;13.294;2023-07-13T07:07:06;2.10;;;1.77;;
18576;SDS011;9418;52.694;13.294;2023-07-13T07:09:33;4.87;;;1.80;;
18576;SDS011;9418;52.694;13.294;2023-07-13T07:11:59;8.47;;;1.63;;
18576;SDS011;9418;52.694;13.294;2023-07-13T07:14:26;5.87;;;1.67;;
18576;SDS011;9418;52.694;13.294;2023-07-13T07:16:52;4.83;;;1.70;;
18576;SDS011;9418;52.694;13.294;2023-07-13T07:19:20;3.23;;;1.70;;
18576;SDS011;9418;52.694;13.294;2023-07-13T07:21:47;4.30;;;1.80;;
18576;SDS011;9418;52.694;13.294;2023-07-13T07:24:13;3.20;;;2.00;;
18576;SDS011;9418;52.694;13.294;2023-07-13T07:26:40;3.50;;;1.70;;
18576;SDS011;9418;52.694;13.294;2023-07-13T07:29:07;3.97;;;1.70;;
18576;SDS011;9418;52.694;13.294;2023-07-13T07:31:33;3.43;;;1.27;;
18576;SDS011;9418;52.694;13.294;2023-07-13T07:34:02;13.20;;;1.70;;
18576;SDS011;9418;52.694;13.294;2023-07-13T07:36:30;2.70;;;1.73;;
18576;SDS011;9418;52.694;13.294;2023-07-13T07:38:56;8.03;;;2.00;;
18576;SDS011;9418;52.694;13.294;2023-07-13T07:41:23;2.80;;;2.07;;
18576;SDS011;9418;52.694;13.294;2023-07-13T07:43:50;2.87;;;1.80;;
18576;SDS011;9418;52.694;13.294;2023-07-13T07:46:16;1.93;;;1.40;;
18576;SDS011;9418;52.694;13.294;2023-07-13T07:48:43;3.67;;;1.97;;
18576;SDS011;9418;52.694;13.294;2023-07-13T07:51:09;4.23;;;1.80;;
18576;SDS011;9418;52.694;13.294;2023-07-13T07:53:37;2.80;;;1.70;;
18576;SDS011;9418;52.694;13.294;2023-07-13T07:56:04;2.40;;;1.70;;
18576;SDS011;9418;52.694;13.294;2023-07-13T07:58:30;1.93;;;1.40;;
18576;SDS011;9418;52.694;13.294;2023-07-13T08:01:01;1.97;;;1.20;;
18576;SDS011;9418;52.694;13.294;2023-07-13T08:03:29;4.47;;;1.20;;
18576;SDS011;9418;52.694;13.294;2023-07-13T08:05:55;1.00;;;0.90;;
18576;SDS011;9418;52.694;13.294;2023-07-13T08:08:22;1.67;;;1.17;;
18576;SDS011;9418;52.694;13.294;2023-07-13T08:10:50;1.27;;;0.90;;
18576;SDS011;9418;52.694;13.294;2023-07-13T08:13:17;4.70;;;0.90;;
18576;SDS011;9418;52.694;13.294;2023-07-13T08:15:43;1.50;;;1.00;;
18576;SDS011;9418;52.694;13.294;2023-07-13T08:18:10;1.60;;;0.83;;
18576;SDS011;9418;52.694;13.294;2023-07-13T08:20:37;4.20;;;1.20;;
18576;SDS011;9418;52.694;13.294;2023-07-13T08:23:04;1.90;;;1.30;;
18576;SDS011;9418;52.694;13.294;2023-07-13T08:25:31;6.03;;;2.10;;
18576;SDS011;9418;52.694;13.294;2023-07-13T08:27:59;6.40;;;1.10;;
18576;SDS011;9418;52.694;13.294;2023-07-13T08:30:25;4.60;;;1.13;;
18576;SDS011;9418;52.694;13.294;2023-07-13T08:32:52;3.70;;;1.13;;
18576;SDS011;9418;52.694;13.294;2023-07-13T08:35:19;1.20;;;0.80;;
18576;SDS011;9418;52.694;13.294;2023-07-13T08:37:46;1.00;;;0.90;;
18576;SDS011;9418;52.694;13.294;2023-07-13T08:40:12;1.43;;;1.17;;
18576;SDS011;9418;52.694;13.294;2023-07-13T08:42:42;3.93;;;1.00;;
18576;SDS011;9418;52.694;13.294;2023-07-13T08:45:14;4.50;;;1.20;;
18576;SDS011;9418;52.694;13.294;2023-07-13T08:47:47;8.23;;;1.07;;
18576;SDS011;9418;52.694;13.294;2023-07-13T08:50:19;4.73;;;1.10;;
18576;SDS011;9418;52.694;13.294;2023-07-13T08:52:50;1.67;;;1.00;;
18576;SDS011;9418;52.694;13.294;2023-07-13T08:55:19;2.77;;;1.30;;
18576;SDS011;9418;52.694;13.294;2023-07-13T08:57:48;7.03;;;1.20;;
18576;SDS011;9418;52.694;13.294;2023-07-13T09:00:21;6.30;;;1.40;;
18576;SDS011;9418;52.694;13.294;2023-07-13T09:02:51;4.40;;;1.20;;
18576;SDS011;9418;52.694;13.294;2023-07-13T09:05:22;3.93;;;1.10;;
18576;SDS011;9418;52.694;13.294;2023-07-13T09:08:05;4.83;;;1.50;;
18576;SDS011;9418;52.694;13.294;2023-07-13T09:10:49;4.60;;;1.10;;
18576;SDS011;9418;52.694;13.294;2023-07-13T09:13:21;1.63;;;1.43;;
18576;SDS011;9418;52.694;13.294;2023-07-13T09:15:56;4.57;;;1.10;;
18576;SDS011;9418;52.694;13.294;2023-07-13T09:18:26;2.40;;;1.23;;
18576;SDS011;9418;52.694;13.294;2023-07-13T09:20:57;3.47;;;1.50;;
18576;SDS011;9418;52.694;13.294;2023-07-13T09:23:28;4.70;;;1.60;;
18576;SDS011;9418;52.694;13.294;2023-07-13T09:25:58;1.67;;;1.43;;
18576;SDS011;9418;52.694;13.294;2023-07-13T09:28:29;5.10;;;1.50;;
18576;SDS011;9418;52.694;13.294;2023-07-13T09:31:04;1.73;;;1.40;;
18576;SDS011;9418;52.694;13.294;2023-07-13T09:33:33;1.47;;;1.13;;
18576;SDS011;9418;52.694;13.294;2023-07-13T09:36:00;1.80;;;1.10;;
18576;SDS011;9418;52.694;13.294;2023-07-13T09:38:27;3.03;;;1.33;;
18576;SDS011;9418;52.694;13.294;2023-07-13T09:41:09;3.07;;;1.37;;
18576;SDS011;9418;52.694;13.294;2023-07-13T09:44:02;3.27;;;1.47;;
18576;SDS011;9418;52.694;13.294;2023-07-13T09:46:38;8.37;;;1.77;;
18576;SDS011;9418;52.694;13.294;2023-07-13T09:49:09;5.43;;;1.50;;
18576;SDS011;9418;52.694;13.294;2023-07-13T09:51:36;4.30;;;1.50;;
18576;SDS011;9418;52.694;13.294;2023-07-13T09:54:03;6.67;;;1.60;;
18576;SDS011;9418;52.694;13.294;2023-07-13T09:56:29;3.17;;;1.70;;
18576;SDS011;9418;52.694;13.294;2023-07-13T09:58:57;4.03;;;1.40;;
18576;SDS011;9418;52.694;13.294;2023-07-13T10:01:30;3.50;;;1.30;;
18576;SDS011;9418;52.694;13.294;2023-07-13T10:04:00;3.83;;;1.80;;
18576;SDS011;9418;52.694;13.294;2023-07-13T10:06:28;2.87;;;1.40;;
18576;SDS011;9418;52.694;13.294;2023-07-13T10:08:56;3.37;;;1.70;;
18576;SDS011;9418;52.694;13.294;2023-07-13T10:11:23;7.37;;;2.40;;
18576;SDS011;9418;52.694;13.294;2023-07-13T10:13:55;8.23;;;2.40;;
18576;SDS011;9418;52.694;13.294;2023-07-13T10:16:22;7.20;;;1.97;;
18576;SDS011;9418;52.694;13.294;2023-07-13T10:18:53;4.90;;;2.10;;
18576;SDS011;9418;52.694;13.294;2023-07-13T10:21:26;1.90;;;1.70;;
18576;SDS011;9418;52.694;13.294;2023-07-13T10:23:56;2.97;;;1.90;;
18576;SDS011;9418;52.694;13.294;2023-07-13T10:26:31;6.67;;;2.40;;
18576;SDS011;9418;52.694;13.294;2023-07-13T10:29:01;3.57;;;1.70;;
18576;SDS011;9418;52.694;13.294;2023-07-13T10:31:32;6.57;;;2.60;;
18576;SDS011;9418;52.694;13.294;2023-07-13T10:34:00;5.30;;;2.57;;
18576;SDS011;9418;52.694;13.294;2023-07-13T10:36:30;2.50;;;1.37;;
18576;SDS011;9418;52.694;13.294;2023-07-13T10:39:01;5.37;;;1.73;;
18576;SDS011;9418;52.694;13.294;2023-07-13T10:41:30;3.70;;;1.97;;
18576;SDS011;9418;52.694;13.294;2023-07-13T10:44:00;3.83;;;1.83;;
18576;SDS011;9418;52.694;13.294;2023-07-13T10:46:28;4.90;;;1.93;;
18576;SDS011;9418;52.694;13.294;2023-07-13T10:48:57;2.47;;;2.07;;
18576;SDS011;9418;52.694;13.294;2023-07-13T10:51:25;12.30;;;2.23;;
18576;SDS011;9418;52.694;13.294;2023-07-13T10:56:49;8.37;;;2.20;;
18576;SDS011;9418;52.694;13.294;2023-07-13T10:59:18;3.10;;;2.03;;
18576;SDS011;9418;52.694;13.294;2023-07-13T11:01:53;2.70;;;1.90;;
18576;SDS011;9418;52.694;13.294;2023-07-13T11:04:22;4.60;;;1.73;;
18576;SDS011;9418;52.694;13.294;2023-07-13T11:06:50;9.67;;;2.70;;
18576;SDS011;9418;52.694;13.294;2023-07-13T11:09:37;10.03;;;1.83;;
18576;SDS011;9418;52.694;13.294;2023-07-13T11:12:09;2.90;;;1.90;;
18576;SDS011;9418;52.694;13.294;2023-07-13T11:15:05;8.63;;;1.80;;
18576;SDS011;9418;52.694;13.294;2023-07-13T11:17:37;2.77;;;1.57;;
18576;SDS011;9418;52.694;13.294;2023-07-13T11:20:21;3.77;;;1.73;;
18576;SDS011;9418;52.694;13.294;2023-07-13T11:23:07;8.63;;;2.00;;
18576;SDS011;9418;52.694;13.294;2023-07-13T11:25:37;2.50;;;1.93;;
18576;SDS011;9418;52.694;13.294;2023-07-13T11:28:05;2.77;;;1.63;;
18576;SDS011;9418;52.694;13.294;2023-07-13T11:30:39;4.57;;;1.93;;
18576;SDS011;9418;52.694;13.294;2023-07-13T11:33:10;16.13;;;2.10;;
18576;SDS011;9418;52.694;13.294;2023-07-13T11:35:42;3.83;;;1.90;;
18576;SDS011;9418;52.694;13.294;2023-07-13T11:38:14;10.53;;;2.20;;
18576;SDS011;9418;52.694;13.294;2023-07-13T11:40:46;2.07;;;1.80;;
18576;SDS011;9418;52.694;13.294;2023-07-13T11:43:14;3.70;;;1.93;;
18576;SDS011;9418;52.694;13.294;2023-07-13T11:45:42;5.00;;;1.30;;
18576;SDS011;9418;52.694;13.294;2023-07-13T11:48:22;2.70;;;2.07;;
18576;SDS011;9418;52.694;13.294;2023-07-13T11:50:51;3.23;;;1.67;;
18576;SDS011;9418;52.694;13.294;2023-07-13T11:53:20;3.40;;;1.87;;
18576;SDS011;9418;52.694;13.294;2023-07-13T11:55:48;5.50;;;2.07;;
18576;SDS011;9418;52.694;13.294;2023-07-13T11:58:16;5.60;;;2.30;;
18576;SDS011;9418;52.694;13.294;2023-07-13T12:00:46;6.30;;;2.00;;
18576;SDS011;9418;52.694;13.294;2023-07-13T12:03:14;2.50;;;1.50;;
18576;SDS011;9418;52.694;13.294;2023-07-13T12:05:55;8.70;;;2.20;;
18576;SDS011;9418;52.694;13.294;2023-07-13T12:08:26;1.57;;;1.33;;
18576;SDS011;9418;52.694;13.294;2023-07-13T12:10:58;7.80;;;2.17;;
18576;SDS011;9418;52.694;13.294;2023-07-13T12:13:26;11.47;;;3.00;;
18576;SDS011;9418;52.694;13.294;2023-07-13T12:15:54;9.13;;;2.33;;
18576;SDS011;9418;52.694;13.294;2023-07-13T12:18:23;4.50;;;1.97;;
18576;SDS011;9418;52.694;13.294;2023-07-13T12:20:55;5.70;;;2.20;;
18576;SDS011;9418;52.694;13.294;2023-07-13T12:23:24;4.23;;;2.40;;
18576;SDS011;9418;52.694;13.294;2023-07-13T12:25:54;8.40;;;2.40;;
18576;SDS011;9418;52.694;13.294;2023-07-13T12:28:28;5.50;;;2.93;;
18576;SDS011;9418;52.694;13.294;2023-07-13T12:30:59;3.17;;;2.33;;
18576;SDS011;9418;52.694;13.294;2023-07-13T12:33:27;2.10;;;1.70;;
18576;SDS011;9418;52.694;13.294;2023-07-13T12:35:55;3.97;;;2.33;;
18576;SDS011;9418;52.694;13.294;2023-07-13T12:38:24;7.43;;;2.60;;
18576;SDS011;9418;52.694;13.294;2023-07-13T12:40:51;2.80;;;2.17;;
18576;SDS011;9418;52.694;13.294;2023-07-13T12:43:19;6.33;;;2.17;;
18576;SDS011;9418;52.694;13.294;2023-07-13T12:45:55;3.57;;;2.60;;
18576;SDS011;9418;52.694;13.294;2023-07-13T12:48:23;2.33;;;2.13;;
18576;SDS011;9418;52.694;13.294;2023-07-13T12:50:50;3.47;;;2.23;;
18576;SDS011;9418;52.694;13.294;2023-07-13T12:53:21;5.33;;;2.67;;
18576;SDS011;9418;52.694;13.294;2023-07-13T12:55:50;8.20;;;2.30;;
18576;SDS011;9418;52.694;13.294;2023-07-13T12:58:21;2.20;;;1.80;;
18576;SDS011;9418;52.694;13.294;2023-07-13T13:00:51;13.50;;;2.30;;
18576;SDS011;9418;52.694;13.294;2023-07-13T13:03:24;12.73;;;2.07;;
18576;SDS011;9418;52.694;13.294;2023-07-13T13:05:56;7.33;;;2.30;;
18576;SDS011;9418;52.694;13.294;2023-07-13T13:08:25;8.60;;;2.30;;
18576;SDS011;9418;52.694;13.294;2023-07-13T13:10:51;6.60;;;2.20;;
18576;SDS011;9418;52.694;13.294;2023-07-13T13:13:18;4.20;;;2.43;;
18576;SDS011;9418;52.694;13.294;2023-07-13T13:15:44;4.40;;;2.00;;
18576;SDS011;9418;52.694;13.294;2023-07-13T13:18:15;4.90;;;1.90;;
18576;SDS011;9418;52.694;13.294;2023-07-13T13:20:44;3.67;;;2.00;;
18576;SDS011;9418;52.694;13.294;2023-07-13T13:23:12;4.70;;;2.30;;
18576;SDS011;9418;52.694;13.294;2023-07-13T13:25:40;8.33;;;2.63;;
18576;SDS011;9418;52.694;13.294;2023-07-13T13:28:11;4.50;;;1.80;;
18576;SDS011;9418;52.694;13.294;2023-07-13T13:30:41;5.23;;;2.00;;
18576;SDS011;9418;52.694;13.294;2023-07-13T13:33:09;6.07;;;1.93;;
18576;SDS011;9418;52.694;13.294;2023-07-13T13:35:37;5.30;;;1.50;;
18576;SDS011;9418;52.694;13.294;2023-07-13T13:38:08;4.33;;;1.60;;
18576;SDS011;9418;52.694;13.294;2023-07-13T13:40:37;7.67;;;1.90;;
18576;SDS011;9418;52.694;13.294;2023-07-13T13:43:04;9.23;;;1.53;;
18576;SDS011;9418;52.694;13.294;2023-07-13T13:45:39;3.80;;;1.70;;
18576;SDS011;9418;52.694;13.294;2023-07-13T13:48:06;3.63;;;2.03;;
18576;SDS011;9418;52.694;13.294;2023-07-13T13:50:39;2.30;;;1.90;;
18576;SDS011;9418;52.694;13.294;2023-07-13T13:53:08;2.33;;;1.43;;
18576;SDS011;9418;52.694;13.294;2023-07-13T13:55:36;3.80;;;1.83;;
18576;SDS011;9418;52.694;13.294;2023-07-13T13:58:02;5.83;;;2.10;;
18576;SDS011;9418;52.694;13.294;2023-07-13T14:00:29;3.47;;;1.70;;
18576;SDS011;9418;52.694;13.294;2023-07-13T14:02:56;2.13;;;1.33;;
18576;SDS011;9418;52.694;13.294;2023-07-13T14:05:23;3.80;;;1.40;;
18576;SDS011;9418;52.694;13.294;2023-07-13T14:07:51;4.03;;;1.60;;
18576;SDS011;9418;52.694;13.294;2023-07-13T14:10:19;4.07;;;1.80;;
18576;SDS011;9418;52.694;13.294;2023-07-13T14:12:47;6.17;;;1.77;;
18576;SDS011;9418;52.694;13.294;2023-07-13T14:15:17;5.23;;;1.70;;
18576;SDS011;9418;52.694;13.294;2023-07-13T14:17:47;8.43;;;1.43;;
18576;SDS011;9418;52.694;13.294;2023-07-13T14:20:15;4.37;;;1.90;;
18576;SDS011;9418;52.694;13.294;2023-07-13T14:22:42;2.80;;;2.10;;
18576;SDS011;9418;52.694;13.294;2023-07-13T14:25:10;4.10;;;1.53;;
18576;SDS011;9418;52.694;13.294;2023-07-13T14:27:38;6.10;;;1.30;;
18576;SDS011;9418;52.694;13.294;2023-07-13T14:30:11;9.43;;;1.83;;
18576;SDS011;9418;52.694;13.294;2023-07-13T14:32:40;4.80;;;1.20;;
18576;SDS011;9418;52.694;13.294;2023-07-13T14:35:07;4.00;;;1.40;;
18576;SDS011;9418;52.694;13.294;2023-07-13T14:37:36;7.03;;;1.30;;
18576;SDS011;9418;52.694;13.294;2023-07-13T14:40:07;4.20;;;1.60;;
18576;SDS011;9418;52.694;13.294;2023-07-13T14:42:40;3.63;;;1.20;;
18576;SDS011;9418;52.694;13.294;2023-07-13T14:45:12;2.90;;;1.47;;
18576;SDS011;9418;52.694;13.294;2023-07-13T14:47:39;1.83;;;1.13;;
18576;SDS011;9418;52.694;13.294;2023-07-13T14:50:07;3.40;;;1.50;;
18576;SDS011;9418;52.694;13.294;2023-07-13T14:52:39;2.97;;;1.47;;
18576;SDS011;9418;52.694;13.294;2023-07-13T14:55:08;2.80;;;1.40;;
18576;SDS011;9418;52.694;13.294;2023-07-13T14:57:36;8.73;;;1.23;;
18576;SDS011;9418;52.694;13.294;2023-07-13T15:00:05;2.10;;;1.17;;
18576;SDS011;9418;52.694;13.294;2023-07-13T15:02:38;3.50;;;1.13;;
18576;SDS011;9418;52.694;13.294;2023-07-13T15:05:05;3.77;;;1.00;;